F E Warren AFB, Wyoming
Current Conditions -  °F | °C
As of 7:53 AM on Monday 24 Nov 2014 (Local Time) from KCYS Reporting Station
Overcast Overcast  
Wind Chill: 19°   Ceiling: 11000
Heat Index: 30°   Visibility: 10mi
Dew Point: 13°   Wind: 16mph
Humidity: 49%   Direction: 300°WNW
Pressure: 29.86"   Gusts: 33mph
Location:  41.13°N, 104.82°W
Report Text: KCYS 241453Z 30014G29KT 10SM OVC110 M01/M11 A2986 RMK AO2 PK WND 30029/1448 SLP143 T10111106 53016
Loading
Personal Weather Stations






























Interactive Weather Map New forecast layout! Learn more

10-Day Weather Forecast

Advertisements
Track Severe Weather on mobile